createdAt,value
2019-04-16T00:01:21.295Z,6.73
2019-04-16T00:03:58.007Z,6.20
2019-04-16T00:06:51.486Z,7.80
2019-04-16T00:09:42.072Z,6.40
2019-04-16T00:12:25.965Z,6.10
2019-04-16T00:14:58.355Z,7.17
2019-04-16T00:17:30.086Z,6.37
2019-04-16T00:20:05.911Z,6.83
2019-04-16T00:22:43.203Z,6.13
2019-04-16T00:25:14.912Z,21.40
2019-04-16T00:27:46.633Z,6.73
2019-04-16T00:30:18.350Z,6.50
2019-04-16T00:32:50.076Z,7.37
2019-04-16T00:35:21.812Z,8.13
2019-04-16T00:37:53.491Z,7.93
2019-04-16T00:40:26.693Z,7.97
2019-04-16T00:42:58.665Z,6.47
2019-04-16T00:45:30.336Z,6.13
2019-04-16T00:48:01.990Z,6.30
2019-04-16T00:50:33.760Z,7.10
2019-04-16T00:53:08.246Z,8.30
2019-04-16T00:55:42.253Z,8.07
2019-04-16T00:58:13.062Z,6.30
2019-04-16T01:00:44.740Z,8.83
2019-04-16T01:03:16.409Z,12.30
2019-04-16T01:05:48.114Z,7.40
2019-04-16T01:08:22.383Z,6.37
2019-04-16T01:10:54.074Z,6.83
2019-04-16T01:13:25.794Z,6.67
2019-04-16T01:15:57.518Z,9.53
2019-04-16T01:18:29.138Z,7.50
2019-04-16T01:21:00.805Z,6.97
2019-04-16T01:23:32.611Z,6.73
2019-04-16T01:26:04.312Z,7.20
2019-04-16T01:28:39.496Z,7.37
2019-04-16T01:31:33.434Z,6.57
2019-04-16T01:34:22.980Z,9.20
2019-04-16T01:37:28.783Z,8.17
2019-04-16T01:40:00.985Z,7.27
2019-04-16T01:42:32.791Z,7.47
2019-04-16T01:45:04.621Z,7.33
2019-04-16T01:47:37.313Z,7.80
2019-04-16T01:50:12.758Z,8.00
2019-04-16T01:52:42.833Z,7.50
2019-04-16T01:55:14.512Z,9.47
2019-04-16T01:57:46.134Z,8.00
2019-04-16T02:00:17.802Z,8.97
2019-04-16T02:02:49.449Z,7.90
2019-04-16T02:05:23.229Z,6.57
2019-04-16T02:07:56.383Z,6.50
2019-04-16T02:10:27.908Z,6.83
2019-04-16T02:13:00.689Z,7.50
2019-04-16T02:15:32.252Z,7.33
2019-04-16T02:18:05.149Z,6.47
2019-04-16T02:20:39.516Z,7.50
2019-04-16T02:23:10.402Z,7.73
2019-04-16T02:25:42.215Z,6.70
2019-04-16T02:28:13.870Z,7.40
2019-04-16T02:30:45.541Z,6.77
2019-04-16T02:33:17.303Z,7.10
2019-04-16T02:35:48.974Z,9.20
2019-04-16T02:38:20.623Z,8.13
2019-04-16T02:40:53.355Z,7.23
2019-04-16T02:43:25.246Z,7.47
2019-04-16T02:45:58.679Z,6.73
2019-04-16T02:48:30.269Z,7.40
2019-04-16T02:51:10.936Z,7.93
2019-04-16T02:53:59.861Z,7.13
2019-04-16T02:56:52.025Z,8.20
2019-04-16T02:59:26.287Z,7.63
2019-04-16T03:02:16.837Z,7.23
2019-04-16T03:04:58.196Z,6.87
2019-04-16T03:07:26.929Z,9.17
2019-04-16T03:10:01.409Z,7.07
2019-04-16T03:12:32.126Z,9.27
2019-04-16T03:15:04.321Z,7.73
2019-04-16T03:17:39.555Z,7.60
2019-04-16T03:20:13.467Z,7.20
2019-04-16T03:22:45.428Z,8.07
2019-04-16T03:25:17.046Z,7.50
2019-04-16T03:27:51.505Z,8.90
2019-04-16T03:30:22.068Z,7.33
2019-04-16T03:32:53.807Z,7.40
2019-04-16T03:35:26.734Z,8.03
2019-04-16T03:38:01.503Z,8.77
2019-04-16T03:40:32.102Z,8.17
2019-04-16T03:43:04.464Z,6.97
2019-04-16T03:45:37.612Z,7.37
2019-04-16T03:48:09.695Z,7.27
2019-04-16T03:50:41.348Z,7.60
2019-04-16T03:53:16.406Z,9.93
2019-04-16T03:55:46.485Z,12.37
2019-04-16T03:58:18.197Z,9.93
2019-04-16T04:00:49.854Z,7.90
2019-04-16T04:03:25.845Z,7.47
2019-04-16T04:05:58.185Z,9.80
2019-04-16T04:08:29.816Z,8.20
2019-04-16T04:11:01.502Z,7.80
2019-04-16T04:13:33.140Z,8.97
2019-04-16T04:16:04.929Z,8.57
2019-04-16T04:18:36.602Z,8.57
2019-04-16T04:21:08.260Z,8.90
2019-04-16T04:23:39.950Z,7.80
2019-04-16T04:26:11.585Z,8.47
2019-04-16T04:28:43.284Z,10.77
2019-04-16T04:31:16.720Z,8.77
2019-04-16T04:33:48.397Z,10.60
2019-04-16T04:36:22.954Z,10.97
2019-04-16T04:38:53.374Z,8.57
2019-04-16T04:41:25.334Z,7.77
2019-04-16T04:43:56.991Z,8.07
2019-04-16T04:46:28.623Z,7.73
2019-04-16T04:49:00.515Z,9.10
2019-04-16T04:51:32.143Z,7.20
2019-04-16T04:54:03.826Z,7.87
2019-04-16T04:56:35.511Z,7.47
2019-04-16T04:59:07.157Z,9.30
2019-04-16T05:01:41.899Z,10.50
2019-04-16T05:04:31.182Z,7.53
2019-04-16T05:07:05.023Z,11.53
2019-04-16T05:09:36.951Z,8.33
2019-04-16T05:12:08.683Z,7.90
2019-04-16T05:14:51.110Z,9.20
2019-04-16T05:17:24.755Z,9.33
2019-04-16T05:19:56.443Z,8.90
2019-04-16T05:22:28.073Z,10.03
2019-04-16T05:25:01.509Z,8.53
2019-04-16T05:27:33.083Z,7.27
2019-04-16T05:30:05.276Z,8.77
2019-04-16T05:32:36.932Z,8.17
2019-04-16T05:35:10.153Z,8.83
2019-04-16T05:37:42.009Z,12.23
2019-04-16T05:40:14.066Z,8.43
2019-04-16T05:42:45.686Z,11.10
2019-04-16T05:45:18.882Z,9.87
2019-04-16T05:47:50.528Z,10.37
2019-04-16T05:50:22.231Z,10.93
2019-04-16T05:52:53.915Z,11.27
2019-04-16T05:55:40.789Z,10.40
2019-04-16T05:58:14.904Z,7.53
2019-04-16T06:01:06.477Z,9.17
2019-04-16T06:03:38.193Z,10.90
2019-04-16T06:06:10.077Z,10.20
2019-04-16T06:08:41.842Z,12.07
2019-04-16T06:11:27.277Z,11.87
2019-04-16T06:14:08.528Z,9.27
2019-04-16T06:16:57.753Z,7.77
2019-04-16T06:20:00.497Z,10.07
2019-04-16T06:23:03.566Z,11.80
2019-04-16T06:25:59.565Z,11.10
2019-04-16T06:28:48.747Z,7.03
2019-04-16T06:31:41.565Z,18.07
2019-04-16T06:34:37.966Z,9.50
2019-04-16T06:37:21.497Z,12.03
2019-04-16T06:40:20.836Z,11.80
2019-04-16T06:43:02.800Z,10.30
2019-04-16T06:45:38.896Z,35.00
2019-04-16T06:48:13.978Z,14.20
2019-04-16T06:51:12.683Z,12.70
2019-04-16T06:54:01.669Z,9.53
2019-04-16T06:56:54.424Z,10.23
2019-04-16T06:59:47.798Z,8.43
2019-04-16T07:03:02.144Z,10.67
2019-04-16T07:05:55.172Z,11.30
2019-04-16T07:08:55.033Z,10.30
2019-04-16T07:11:26.954Z,8.97
2019-04-16T07:13:58.698Z,14.43
2019-04-16T07:16:32.248Z,11.97
2019-04-16T07:19:04.020Z,8.77
2019-04-16T07:21:35.844Z,8.27
2019-04-16T07:24:07.576Z,9.67
2019-04-16T07:26:40.013Z,10.33
2019-04-16T07:29:20.488Z,8.23
2019-04-16T07:32:29.511Z,9.03
2019-04-16T07:35:27.202Z,8.30
2019-04-16T07:38:12.994Z,9.03
2019-04-16T07:41:02.311Z,10.43
2019-04-16T07:43:52.193Z,9.37
2019-04-16T07:46:44.134Z,9.50
2019-04-16T07:49:32.264Z,7.97
2019-04-16T07:52:21.476Z,9.30
2019-04-16T07:55:14.325Z,9.27
2019-04-16T07:57:46.108Z,8.43
2019-04-16T08:00:19.183Z,6.93
2019-04-16T08:02:53.796Z,7.30
2019-04-16T08:05:27.642Z,11.53
2019-04-16T08:07:57.945Z,8.27
2019-04-16T08:10:29.775Z,8.23
2019-04-16T08:13:14.087Z,8.30
2019-04-16T08:15:45.363Z,9.30
2019-04-16T08:18:18.368Z,8.50
2019-04-16T08:21:01.052Z,9.43
2019-04-16T08:23:28.688Z,7.77
2019-04-16T08:26:04.150Z,9.07
2019-04-16T08:28:37.859Z,11.20
2019-04-16T08:31:14.453Z,10.00
2019-04-16T08:33:46.271Z,20.30
2019-04-16T08:36:17.957Z,17.30
2019-04-16T08:38:49.772Z,11.53
2019-04-16T08:41:21.799Z,9.77
2019-04-16T08:43:53.459Z,11.33
2019-04-16T08:46:28.320Z,12.87
2019-04-16T08:49:00.487Z,7.07
2019-04-16T08:51:37.050Z,10.13
2019-04-16T08:54:05.778Z,9.30
2019-04-16T08:56:38.988Z,9.83
2019-04-16T08:59:11.335Z,9.00
2019-04-16T09:01:43.351Z,8.70
2019-04-16T09:04:15.079Z,8.90
2019-04-16T09:06:47.324Z,9.77
2019-04-16T09:09:32.833Z,15.33
2019-04-16T09:12:08.858Z,10.60
2019-04-16T09:14:44.783Z,9.50
2019-04-16T09:17:19.793Z,10.37
2019-04-16T09:20:01.406Z,8.47
2019-04-16T09:22:47.882Z,9.43
2019-04-16T09:25:26.664Z,8.60
2019-04-16T09:28:24.420Z,12.87
2019-04-16T09:31:03.181Z,9.17
2019-04-16T09:33:50.031Z,8.23
2019-04-16T09:36:43.806Z,11.90
2019-04-16T09:39:22.108Z,11.10
2019-04-16T09:41:54.526Z,9.43
2019-04-16T09:44:29.744Z,8.10
2019-04-16T09:47:00.519Z,9.47
2019-04-16T09:49:34.398Z,10.13
2019-04-16T09:52:05.878Z,10.13
2019-04-16T09:54:37.593Z,9.60
2019-04-16T09:57:09.378Z,9.57
2019-04-16T09:59:47.819Z,9.33
2019-04-16T10:02:26.011Z,10.83
2019-04-16T10:04:57.818Z,10.43
2019-04-16T10:07:29.668Z,10.60
2019-04-16T10:10:01.538Z,11.10
2019-04-16T10:12:33.503Z,11.00
2019-04-16T10:15:07.906Z,10.63
2019-04-16T10:17:39.613Z,10.00
2019-04-16T10:20:12.915Z,11.33
2019-04-16T10:22:44.661Z,11.33
2019-04-16T10:25:16.644Z,26.00
2019-04-16T10:27:51.712Z,17.93
2019-04-16T10:30:30.590Z,12.90
2019-04-16T10:33:02.993Z,11.95
2019-04-16T10:35:34.822Z,11.45
2019-04-16T10:38:18.192Z,11.80
2019-04-16T10:40:55.271Z,11.40
2019-04-16T10:44:01.238Z,11.38
2019-04-16T10:47:04.111Z,15.63
2019-04-16T10:49:51.571Z,10.72
2019-04-16T10:52:56.259Z,12.43
2019-04-16T10:55:48.071Z,11.25
2019-04-16T10:58:42.235Z,11.55
2019-04-16T11:01:35.109Z,11.33
2019-04-16T11:04:43.055Z,12.07
2019-04-16T11:07:17.512Z,12.10
2019-04-16T11:09:49.799Z,12.25
2019-04-16T11:12:23.776Z,12.68
2019-04-16T11:14:56.254Z,13.30
2019-04-16T11:17:28.977Z,13.55
2019-04-16T11:20:01.278Z,11.73
2019-04-16T11:22:33.689Z,11.38
2019-04-16T11:25:06.511Z,12.13
2019-04-16T11:27:38.822Z,11.57
2019-04-16T11:30:20.668Z,11.60
2019-04-16T11:32:53.484Z,10.30
2019-04-16T11:35:25.931Z,10.25
2019-04-16T11:37:58.388Z,10.13
2019-04-16T11:40:30.767Z,10.23
2019-04-16T11:43:03.304Z,10.18
2019-04-16T11:45:35.657Z,10.70
2019-04-16T11:48:08.151Z,11.05
2019-04-16T11:50:42.276Z,10.60
2019-04-16T11:53:14.710Z,9.95
2019-04-16T11:55:47.192Z,9.90
2019-04-16T11:58:34.176Z,10.35
2019-04-16T12:01:23.181Z,9.28
2019-04-16T12:04:16.264Z,9.73
2019-04-16T12:07:06.605Z,9.95
2019-04-16T12:09:53.986Z,9.30
2019-04-16T12:12:48.127Z,9.63
2019-04-16T12:15:44.923Z,9.73
2019-04-16T12:18:33.759Z,10.70
2019-04-16T12:21:34.537Z,9.18
2019-04-16T12:24:28.584Z,9.95
2019-04-16T12:27:18.694Z,10.48
2019-04-16T12:30:18.639Z,10.05
2019-04-16T12:33:08.734Z,9.38
2019-04-16T12:35:45.749Z,9.55
2019-04-16T12:38:34.838Z,8.78
2019-04-16T12:41:26.095Z,9.45
2019-04-16T12:44:17.375Z,8.75
2019-04-16T12:47:07.865Z,8.35
2019-04-16T12:49:48.696Z,8.13
2019-04-16T12:52:58.182Z,8.93
2019-04-16T12:55:48.942Z,9.03
2019-04-16T12:58:41.594Z,8.25
2019-04-16T13:01:21.875Z,7.83
2019-04-16T13:04:01.570Z,8.78
2019-04-16T13:06:43.628Z,7.85
2019-04-16T13:09:45.683Z,7.97
2019-04-16T13:12:36.944Z,8.68
2019-04-16T13:15:22.299Z,8.75
2019-04-16T13:18:13.811Z,8.63
2019-04-16T13:21:05.475Z,8.98
2019-04-16T13:24:02.760Z,8.25
2019-04-16T13:26:47.607Z,7.58
2019-04-16T13:29:29.050Z,7.70
2019-04-16T13:31:56.948Z,8.20
2019-04-16T13:34:29.315Z,6.90
2019-04-16T13:40:17.549Z,6.58
2019-04-16T13:42:49.860Z,7.70
2019-04-16T13:45:27.673Z,7.10
2019-04-16T13:48:14.527Z,6.90
2019-04-16T13:51:01.781Z,6.95
2019-04-16T13:53:42.155Z,9.00
2019-04-16T13:56:42.394Z,6.80
2019-04-16T13:59:39.457Z,6.90
2019-04-16T14:02:24.831Z,6.25
2019-04-16T14:05:03.057Z,6.65
2019-04-16T14:07:31.501Z,6.30
2019-04-16T14:10:03.940Z,6.00
2019-04-16T14:12:42.393Z,6.53
2019-04-16T14:15:11.555Z,6.97
2019-04-16T14:17:52.531Z,6.58
2019-04-16T14:20:18.751Z,6.42
2019-04-16T14:22:53.351Z,6.47
2019-04-16T14:25:24.169Z,6.05
2019-04-16T14:28:01.934Z,6.08
2019-04-16T14:30:33.008Z,5.60
2019-04-16T14:33:07.474Z,5.97
2019-04-16T14:35:41.424Z,6.45
2019-04-16T14:38:17.314Z,6.95
2019-04-16T14:40:49.100Z,6.73
2019-04-16T14:43:29.434Z,6.70
2019-04-16T14:46:01.705Z,6.90
2019-04-16T14:48:33.704Z,6.67
2019-04-16T14:51:06.451Z,6.95
2019-04-16T14:53:51.232Z,7.62
2019-04-16T14:56:41.836Z,7.50
2019-04-16T14:59:35.150Z,6.55
2019-04-16T15:02:22.525Z,7.50
2019-04-16T15:05:32.550Z,7.67
2019-04-16T15:08:32.634Z,7.67
2019-04-16T15:11:22.114Z,7.83
2019-04-16T15:14:18.678Z,8.63
2019-04-16T15:16:58.739Z,8.10
2019-04-16T15:19:34.142Z,10.23
2019-04-16T15:22:37.093Z,8.47
2019-04-16T15:25:46.650Z,7.97
2019-04-16T15:28:21.676Z,9.33
2019-04-16T15:31:26.356Z,7.92
2019-04-16T15:34:11.134Z,9.87
2019-04-16T15:36:49.890Z,9.00
2019-04-16T15:39:27.439Z,9.53
2019-04-16T15:42:18.084Z,9.03
2019-04-16T15:45:08.258Z,10.53
2019-04-16T15:48:05.416Z,9.07
2019-04-16T15:50:45.159Z,9.40
2019-04-16T15:53:29.948Z,8.77
2019-04-16T15:56:06.920Z,7.87
2019-04-16T15:58:58.080Z,9.83
2019-04-16T16:02:01.824Z,7.00
2019-04-16T16:04:58.326Z,6.60
2019-04-16T16:07:34.230Z,6.93
2019-04-16T16:10:20.885Z,6.23
2019-04-16T16:12:53.607Z,7.13
2019-04-16T16:15:26.150Z,6.77
2019-04-16T16:17:57.962Z,5.90
2019-04-16T16:20:31.227Z,6.10
2019-04-16T16:23:04.111Z,6.40
2019-04-16T16:25:41.171Z,6.30
2019-04-16T16:28:09.321Z,7.10
2019-04-16T16:30:41.079Z,6.60
2019-04-16T16:33:12.916Z,6.63
2019-04-16T16:35:57.047Z,6.67
2019-04-16T16:38:20.783Z,6.37
2019-04-16T16:40:52.090Z,6.47
2019-04-16T16:43:23.950Z,6.10
2019-04-16T16:46:07.567Z,6.03
2019-04-16T16:48:39.396Z,7.03
2019-04-16T16:51:14.761Z,6.50
2019-04-16T16:53:54.801Z,5.17
2019-04-16T16:56:35.823Z,5.63
2019-04-16T16:59:25.162Z,5.90
2019-04-16T17:02:21.571Z,6.37
2019-04-16T17:04:54.344Z,6.07
2019-04-16T17:07:26.135Z,6.27
2019-04-16T17:09:58.077Z,5.83
2019-04-16T17:12:29.825Z,6.30
2019-04-16T17:15:01.676Z,7.17
2019-04-16T17:17:33.427Z,5.97
2019-04-16T17:20:05.833Z,5.80
2019-04-16T17:22:40.565Z,7.50
2019-04-16T17:25:12.270Z,4.37
2019-04-16T17:27:51.739Z,4.20
2019-04-16T17:30:19.163Z,3.90
2019-04-16T17:32:51.040Z,4.90
2019-04-16T17:35:22.935Z,4.53
2019-04-16T17:38:01.853Z,4.77
2019-04-16T17:40:51.151Z,5.20
2019-04-16T17:43:42.783Z,5.60
2019-04-16T17:46:32.108Z,3.63
2019-04-16T17:49:24.105Z,4.23
2019-04-16T17:52:06.379Z,3.13
2019-04-16T17:54:48.559Z,4.17
2019-04-16T17:57:38.011Z,3.33
2019-04-16T18:00:42.003Z,3.00
2019-04-16T18:03:37.586Z,2.83
2019-04-16T18:06:27.533Z,3.10
2019-04-16T18:09:14.957Z,2.97
2019-04-16T18:12:09.178Z,3.20
2019-04-16T18:14:59.238Z,5.63
2019-04-16T18:17:47.165Z,2.50
2019-04-16T18:20:30.186Z,2.67
2019-04-16T18:23:20.945Z,3.13
2019-04-16T18:26:12.609Z,3.40
2019-04-16T18:29:01.847Z,2.53
2019-04-16T18:31:44.896Z,2.67
2019-04-16T18:34:31.459Z,2.23
2019-04-16T18:37:22.905Z,2.50
2019-04-16T18:40:06.815Z,2.00
2019-04-16T18:42:56.693Z,2.83
2019-04-16T18:45:47.488Z,1.90
2019-04-16T18:48:25.003Z,1.70
2019-04-16T18:50:59.930Z,1.83
2019-04-16T18:53:32.227Z,2.37
2019-04-16T18:56:04.251Z,2.17
2019-04-16T18:58:36.262Z,1.93
2019-04-16T19:01:15.275Z,2.57
2019-04-16T19:03:48.425Z,1.70
2019-04-16T19:06:20.509Z,2.03
2019-04-16T19:08:54.459Z,3.33
2019-04-16T19:11:27.849Z,3.80
2019-04-16T19:14:01.789Z,3.63
2019-04-16T19:16:33.818Z,1.77
2019-04-16T19:19:05.924Z,2.07
2019-04-16T19:21:37.731Z,2.33
2019-04-16T19:24:09.860Z,1.20
2019-04-16T19:26:41.895Z,1.40
2019-04-16T19:29:15.629Z,1.30
2019-04-16T19:31:47.943Z,1.50
2019-04-16T19:34:21.067Z,1.37
2019-04-16T19:36:55.997Z,0.97
2019-04-16T19:39:26.931Z,2.10
2019-04-16T19:41:59.184Z,1.17
2019-04-16T19:44:33.907Z,0.97
2019-04-16T19:47:07.197Z,1.10
2019-04-16T19:49:40.597Z,1.60
2019-04-16T19:52:14.217Z,1.83
2019-04-16T19:54:46.563Z,2.13
2019-04-16T19:57:18.865Z,1.30
2019-04-16T19:59:51.167Z,0.80
2019-04-16T20:02:23.173Z,1.10
2019-04-16T20:04:55.345Z,3.10
2019-04-16T20:07:32.613Z,3.57
2019-04-16T20:10:02.621Z,2.07
2019-04-16T20:12:34.612Z,1.50
2019-04-16T20:15:09.425Z,1.20
2019-04-16T20:17:40.758Z,1.80
2019-04-16T20:20:14.549Z,1.30
2019-04-16T20:22:46.812Z,1.30
2019-04-16T20:25:18.751Z,1.60
2019-04-16T20:27:50.732Z,2.67
2019-04-16T20:30:24.424Z,1.13
2019-04-16T20:32:58.319Z,1.03
2019-04-16T20:35:30.299Z,1.30
2019-04-16T20:38:02.212Z,1.50
2019-04-16T20:40:34.823Z,0.97
2019-04-16T20:43:06.762Z,1.07
2019-04-16T20:45:40.539Z,1.70
2019-04-16T20:48:14.142Z,1.17
2019-04-16T20:50:46.024Z,1.07
2019-04-16T20:53:19.025Z,1.57
2019-04-16T20:55:50.911Z,1.07
2019-04-16T20:58:22.991Z,1.27
2019-04-16T21:00:57.307Z,1.13
2019-04-16T21:03:31.183Z,1.07
2019-04-16T21:06:07.497Z,0.90
2019-04-16T21:08:37.403Z,1.10
2019-04-16T21:11:09.795Z,1.87
2019-04-16T21:13:41.687Z,1.13
2019-04-16T21:16:13.655Z,1.37
2019-04-16T21:18:45.527Z,1.43
2019-04-16T21:21:22.951Z,1.73
2019-04-16T21:23:51.106Z,1.30
2019-04-16T21:26:22.938Z,1.97
2019-04-16T21:29:05.535Z,1.30
2019-04-16T21:31:42.341Z,1.23
2019-04-16T21:34:29.918Z,1.50
2019-04-16T21:37:15.537Z,2.37
2019-04-16T21:39:52.347Z,1.50
2019-04-16T21:42:24.237Z,1.73
2019-04-16T21:44:56.399Z,2.07
2019-04-16T21:47:29.455Z,1.70
2019-04-16T21:50:01.325Z,4.43
2019-04-16T21:52:33.098Z,1.27
2019-04-16T21:55:05.286Z,2.30
2019-04-16T21:57:37.520Z,1.50
2019-04-16T22:00:22.078Z,2.37
2019-04-16T22:02:53.980Z,2.13
2019-04-16T22:05:25.824Z,1.53
2019-04-16T22:07:58.923Z,1.57
2019-04-16T22:10:30.666Z,1.83
2019-04-16T22:13:02.580Z,2.57
2019-04-16T22:15:34.356Z,1.83
2019-04-16T22:18:08.832Z,1.40
2019-04-16T22:20:42.445Z,1.40
2019-04-16T22:23:19.038Z,1.30
2019-04-16T22:25:47.827Z,1.50
2019-04-16T22:28:19.598Z,2.10
2019-04-16T22:30:52.321Z,2.97
2019-04-16T22:33:24.084Z,4.33
2019-04-16T22:35:55.951Z,1.50
2019-04-16T22:38:29.387Z,2.07
2019-04-16T22:41:14.068Z,1.40
2019-04-16T22:44:02.163Z,3.03
2019-04-16T22:46:48.450Z,1.70
2019-04-16T22:49:22.448Z,1.43
2019-04-16T22:51:53.736Z,1.80
2019-04-16T22:54:25.490Z,2.13
2019-04-16T22:57:03.507Z,2.00
2019-04-16T22:59:39.153Z,1.80
2019-04-16T23:02:20.963Z,1.70
2019-04-16T23:04:54.766Z,3.67
2019-04-16T23:07:26.380Z,2.33
2019-04-16T23:09:58.089Z,2.77
2019-04-16T23:12:31.165Z,1.57
2019-04-16T23:15:03.464Z,1.90
2019-04-16T23:17:36.414Z,1.80
2019-04-16T23:20:08.248Z,1.90
2019-04-16T23:22:39.972Z,3.00
2019-04-16T23:25:11.837Z,1.93
2019-04-16T23:27:44.684Z,2.57
2019-04-16T23:30:18.468Z,2.73
2019-04-16T23:32:49.875Z,2.33
2019-04-16T23:35:24.909Z,2.33
2019-04-16T23:37:58.094Z,2.03
2019-04-16T23:40:28.605Z,2.93
2019-04-16T23:43:18.771Z,1.90
2019-04-16T23:46:09.148Z,3.57
2019-04-16T23:48:50.668Z,2.70
2019-04-16T23:51:28.963Z,2.33
2019-04-16T23:54:07.968Z,3.53
2019-04-16T23:56:57.106Z,3.83
2019-04-16T23:59:50.625Z,2.33
